createdAt,value
2022-08-14T00:01:54.670Z,20.81
2022-08-14T00:04:34.471Z,20.81
2022-08-14T00:07:06.053Z,20.81
2022-08-14T00:09:56.242Z,20.80
2022-08-14T00:12:24.305Z,20.81
2022-08-14T00:14:55.264Z,20.82
2022-08-14T00:17:23.839Z,20.83
2022-08-14T00:19:51.704Z,20.84
2022-08-14T00:22:44.539Z,20.83
2022-08-14T00:25:07.627Z,20.82
2022-08-14T00:27:37.873Z,20.81
2022-08-14T00:30:10.717Z,20.80
2022-08-14T00:32:55.820Z,20.79
2022-08-14T00:36:34.376Z,20.77
2022-08-14T00:38:10.341Z,20.75
2022-08-14T00:40:37.474Z,20.73
2022-08-14T00:43:04.463Z,20.70
2022-08-14T00:45:31.315Z,20.68
2022-08-14T00:47:57.930Z,20.64
2022-08-14T00:50:30.696Z,20.63
2022-08-14T00:52:59.664Z,20.64
2022-08-14T00:55:28.024Z,20.64
2022-08-14T00:58:18.476Z,20.64
2022-08-14T01:00:51.317Z,20.63
2022-08-14T01:03:27.319Z,20.63
2022-08-14T01:06:00.621Z,20.64
2022-08-14T01:08:51.935Z,20.62
2022-08-14T01:11:18.871Z,20.59
2022-08-14T01:13:50.769Z,20.61
2022-08-14T01:16:28.050Z,20.61
2022-08-14T01:19:19.841Z,20.64
2022-08-14T01:21:52.854Z,20.69
2022-08-14T01:24:24.694Z,20.71
2022-08-14T01:26:59.265Z,20.70
2022-08-14T01:29:58.356Z,20.69
2022-08-14T01:32:24.233Z,20.66
2022-08-14T01:35:17.851Z,20.61
2022-08-14T01:37:46.782Z,20.54
2022-08-14T01:40:25.788Z,20.46
2022-08-14T01:43:13.920Z,20.39
2022-08-14T01:45:42.095Z,20.34
2022-08-14T01:48:13.332Z,20.29
2022-08-14T01:50:42.415Z,20.21
2022-08-14T01:53:09.529Z,20.18
2022-08-14T01:55:38.933Z,20.15
2022-08-14T01:58:19.746Z,20.15
2022-08-14T02:00:53.620Z,20.16
2022-08-14T02:03:22.970Z,20.17
2022-08-14T02:05:49.575Z,20.16
2022-08-14T02:08:16.537Z,20.16
2022-08-14T02:11:13.255Z,20.15
2022-08-14T02:13:43.532Z,20.15
2022-08-14T02:16:22.427Z,20.15
2022-08-14T02:18:49.619Z,20.16
2022-08-14T02:21:17.992Z,20.17
2022-08-14T02:23:48.482Z,20.20
2022-08-14T02:26:29.395Z,20.21
2022-08-14T02:29:07.793Z,20.22
2022-08-14T02:31:44.419Z,20.22
2022-08-14T02:34:28.695Z,20.21
2022-08-14T02:37:09.389Z,20.18
2022-08-14T02:39:43.805Z,20.16
2022-08-14T02:42:37.215Z,20.13
2022-08-14T02:45:05.689Z,20.09
2022-08-14T02:47:33.831Z,20.08
2022-08-14T02:50:06.404Z,20.06
2022-08-14T02:52:57.700Z,20.03
2022-08-14T02:55:20.526Z,20.00
2022-08-14T02:57:58.206Z,19.96
2022-08-14T03:00:32.599Z,19.92
2022-08-14T03:03:01.350Z,19.89
2022-08-14T03:05:35.797Z,19.86
2022-08-14T03:08:21.585Z,19.83
2022-08-14T03:10:50.128Z,19.80
2022-08-14T03:13:21.410Z,19.79
2022-08-14T03:15:56.200Z,19.76
2022-08-14T03:18:31.663Z,19.74
2022-08-14T03:21:07.438Z,19.71
2022-08-14T03:23:37.866Z,19.70
2022-08-14T03:26:12.957Z,19.69
2022-08-14T03:28:49.138Z,19.69
2022-08-14T03:31:21.650Z,19.67
2022-08-14T03:33:51.803Z,19.68
2022-08-14T03:37:37.849Z,19.68
2022-08-14T03:39:19.004Z,19.69
2022-08-14T03:41:55.638Z,19.70
2022-08-14T03:45:19.031Z,19.70
2022-08-14T03:47:11.958Z,19.71
2022-08-14T03:49:42.326Z,19.73
2022-08-14T03:52:27.949Z,19.75
2022-08-14T03:55:00.152Z,19.78
2022-08-14T03:57:31.970Z,19.79
2022-08-14T04:00:01.959Z,19.82
2022-08-14T04:02:33.187Z,19.88
2022-08-14T04:05:12.797Z,19.94
2022-08-14T04:07:49.467Z,20.01
2022-08-14T04:10:17.565Z,20.08
2022-08-14T04:13:03.624Z,20.11
2022-08-14T04:15:55.638Z,20.14
2022-08-14T04:18:20.017Z,20.18
2022-08-14T04:20:54.269Z,20.22
2022-08-14T04:23:29.615Z,20.24
2022-08-14T04:26:03.615Z,20.28
2022-08-14T04:29:07.156Z,20.33
2022-08-14T04:32:58.555Z,20.40
2022-08-14T04:34:07.879Z,20.43
2022-08-14T04:36:55.003Z,20.46
2022-08-14T04:39:46.530Z,20.48
2022-08-14T04:42:32.622Z,20.49
2022-08-14T04:45:00.611Z,20.52
2022-08-14T04:47:46.767Z,20.57
2022-08-14T04:50:33.709Z,20.63
2022-08-14T04:53:07.897Z,20.72
2022-08-14T04:55:44.635Z,20.80
2022-08-14T04:58:21.618Z,20.88
2022-08-14T05:01:12.694Z,20.97
2022-08-14T05:03:46.722Z,21.08
2022-08-14T05:06:37.359Z,21.16
2022-08-14T05:09:00.738Z,21.15
2022-08-14T05:11:29.087Z,21.15
2022-08-14T05:14:34.362Z,21.20
2022-08-14T05:16:43.638Z,21.33
2022-08-14T05:19:17.580Z,21.47
2022-08-14T05:21:56.141Z,21.63
2022-08-14T05:24:25.885Z,21.76
2022-08-14T05:26:53.274Z,21.80
2022-08-14T05:29:20.283Z,21.90
2022-08-14T05:31:47.490Z,22.02
2022-08-14T05:34:14.091Z,22.13
2022-08-14T05:36:42.756Z,22.20
2022-08-14T05:39:17.491Z,22.25
2022-08-14T05:41:53.479Z,22.21
2022-08-14T05:44:20.655Z,22.16
2022-08-14T05:46:47.590Z,22.15
2022-08-14T05:49:14.165Z,22.19
2022-08-14T05:51:41.284Z,22.19
2022-08-14T05:54:13.692Z,22.17
2022-08-14T05:56:53.925Z,22.21
2022-08-14T05:59:30.158Z,22.21
2022-08-14T06:02:06.464Z,22.24
2022-08-14T06:04:32.982Z,22.24
2022-08-14T06:06:59.700Z,22.27
2022-08-14T06:09:26.216Z,22.32
2022-08-14T06:11:52.958Z,22.35
2022-08-14T06:14:23.848Z,22.34
2022-08-14T06:16:52.021Z,22.39
2022-08-14T06:19:23.207Z,22.76
2022-08-14T06:21:58.077Z,23.31
2022-08-14T06:24:26.088Z,23.69
2022-08-14T06:26:56.915Z,23.69
2022-08-14T06:29:32.101Z,23.56
2022-08-14T06:32:37.717Z,23.36
2022-08-14T06:35:11.405Z,23.26
2022-08-14T06:37:44.859Z,23.20
2022-08-14T06:40:27.251Z,23.09
2022-08-14T06:43:05.701Z,23.06
2022-08-14T06:45:36.141Z,23.13
2022-08-14T06:48:06.145Z,23.31
2022-08-14T06:50:39.300Z,23.43
2022-08-14T06:53:06.931Z,23.48
2022-08-14T06:55:33.983Z,23.54
2022-08-14T06:58:04.304Z,23.64
2022-08-14T07:00:32.566Z,23.99
2022-08-14T07:03:19.453Z,24.25
2022-08-14T07:05:55.664Z,24.55
2022-08-14T07:08:29.542Z,25.12
2022-08-14T07:11:03.385Z,25.39
2022-08-14T07:13:31.068Z,25.71
2022-08-14T07:16:00.545Z,25.76
2022-08-14T07:18:33.129Z,25.87
2022-08-14T07:21:02.071Z,26.20
2022-08-14T07:23:31.163Z,26.59
2022-08-14T07:25:59.882Z,26.88
2022-08-14T07:28:34.145Z,27.25
2022-08-14T07:31:07.884Z,27.60
2022-08-14T07:33:45.567Z,27.74
2022-08-14T07:36:30.127Z,27.74
2022-08-14T07:39:03.254Z,27.72
2022-08-14T07:41:39.901Z,27.66
2022-08-14T07:44:29.703Z,27.67
2022-08-14T07:46:58.043Z,27.59
2022-08-14T07:49:25.582Z,27.48
2022-08-14T07:51:52.476Z,27.26
2022-08-14T07:54:23.135Z,27.12
2022-08-14T07:57:06.312Z,27.35
2022-08-14T07:59:44.126Z,27.77
2022-08-14T08:02:18.446Z,27.98
2022-08-14T08:04:55.084Z,28.31
2022-08-14T08:07:30.608Z,28.56
2022-08-14T08:10:01.070Z,28.46
2022-08-14T08:12:38.659Z,28.11
2022-08-14T08:15:07.759Z,27.71
2022-08-14T08:17:38.961Z,27.45
2022-08-14T08:20:19.845Z,27.05
2022-08-14T08:22:56.376Z,27.13
2022-08-14T08:25:30.686Z,27.44
2022-08-14T08:28:25.162Z,27.27
2022-08-14T08:31:00.199Z,27.04
2022-08-14T08:33:32.123Z,26.95
2022-08-14T08:36:03.356Z,27.18
2022-08-14T08:39:15.728Z,27.40
2022-08-14T08:41:17.175Z,27.51
2022-08-14T08:43:46.280Z,27.47
2022-08-14T08:46:23.472Z,27.66
2022-08-14T08:51:30.978Z,27.56
2022-08-14T08:54:11.845Z,28.00
2022-08-14T08:56:47.901Z,28.52
2022-08-14T08:59:31.083Z,28.60
2022-08-14T09:02:10.167Z,28.86
2022-08-14T09:04:53.629Z,29.17
2022-08-14T09:07:27.328Z,29.53
2022-08-14T09:09:58.632Z,29.38
2022-08-14T09:12:33.219Z,29.22
2022-08-14T09:15:04.323Z,29.66
2022-08-14T09:17:41.205Z,29.62
2022-08-14T09:20:25.898Z,29.95
2022-08-14T09:23:01.508Z,30.01
2022-08-14T09:26:01.421Z,29.89
2022-08-14T09:28:28.045Z,29.75
2022-08-14T09:30:57.664Z,29.43
2022-08-14T09:33:56.823Z,28.94
2022-08-14T09:36:50.111Z,28.56
2022-08-14T09:39:46.245Z,28.50
2022-08-14T09:42:50.023Z,28.48
2022-08-14T09:45:23.555Z,28.50
2022-08-14T09:47:55.775Z,28.66
2022-08-14T09:50:44.217Z,28.76
2022-08-14T09:53:18.466Z,29.15
2022-08-14T09:55:58.957Z,29.23
2022-08-14T09:58:43.410Z,29.41
2022-08-14T10:01:18.383Z,29.09
2022-08-14T10:03:55.222Z,29.04
2022-08-14T10:06:28.287Z,29.34
2022-08-14T10:09:04.500Z,29.66
2022-08-14T10:11:35.572Z,29.40
2022-08-14T10:14:34.743Z,29.19
2022-08-14T10:17:06.469Z,29.26
2022-08-14T10:19:35.796Z,29.39
2022-08-14T10:23:12.677Z,29.42
2022-08-14T10:24:57.486Z,29.08
2022-08-14T10:27:28.128Z,29.06
2022-08-14T10:30:00.290Z,29.17
2022-08-14T10:32:39.956Z,29.57
2022-08-14T10:35:14.459Z,29.78
2022-08-14T10:37:49.935Z,29.82
2022-08-14T10:40:38.265Z,29.86
2022-08-14T10:43:25.037Z,30.09
2022-08-14T10:46:04.015Z,29.74
2022-08-14T10:48:56.344Z,30.00
2022-08-14T10:51:30.283Z,30.39
2022-08-14T10:54:35.014Z,30.69
2022-08-14T10:57:11.500Z,30.72
2022-08-14T10:59:55.728Z,30.74
2022-08-14T11:02:44.952Z,30.73
2022-08-14T11:05:18.813Z,30.76
2022-08-14T11:07:55.426Z,30.63
2022-08-14T11:10:27.632Z,30.33
2022-08-14T11:12:56.600Z,30.12
2022-08-14T11:15:28.146Z,29.83
2022-08-14T11:17:56.043Z,29.79
2022-08-14T11:20:31.321Z,29.86
2022-08-14T11:23:00.839Z,30.05
2022-08-14T11:25:36.748Z,30.28
2022-08-14T11:28:19.054Z,31.12
2022-08-14T11:30:53.806Z,31.15
2022-08-14T11:33:24.296Z,30.88
2022-08-14T11:35:51.274Z,30.99
2022-08-14T11:38:19.622Z,31.30
2022-08-14T11:40:47.655Z,31.61
2022-08-14T11:43:15.835Z,32.12
2022-08-14T11:45:50.055Z,32.30
2022-08-14T11:49:01.990Z,32.59
2022-08-14T11:51:20.495Z,33.12
2022-08-14T11:54:08.310Z,33.66
2022-08-14T11:56:39.267Z,33.86
2022-08-14T11:59:10.195Z,33.94
2022-08-14T12:01:41.017Z,33.75
2022-08-14T12:04:32.333Z,33.89
2022-08-14T12:06:57.259Z,34.02
2022-08-14T12:09:31.501Z,33.80
2022-08-14T12:11:59.156Z,33.67
2022-08-14T12:14:30.903Z,33.58
2022-08-14T12:17:12.748Z,33.14
2022-08-14T12:19:45.770Z,32.98
2022-08-14T12:22:29.842Z,33.34
2022-08-14T12:24:57.426Z,34.12
2022-08-14T12:27:53.478Z,33.97
2022-08-14T12:30:37.648Z,34.16
2022-08-14T12:33:30.947Z,34.20
2022-08-14T12:36:04.493Z,33.91
2022-08-14T12:38:43.718Z,33.56
2022-08-14T12:41:16.443Z,33.41
2022-08-14T12:43:51.231Z,32.83
2022-08-14T12:46:33.478Z,32.10
2022-08-14T12:49:10.030Z,32.22
2022-08-14T12:51:37.697Z,32.64
2022-08-14T12:54:28.257Z,33.10
2022-08-14T12:57:08.791Z,32.83
2022-08-14T12:59:42.568Z,32.67
2022-08-14T13:02:29.473Z,32.76
2022-08-14T13:04:57.326Z,32.61
2022-08-14T13:07:27.135Z,32.19
2022-08-14T13:10:29.659Z,32.44
2022-08-14T13:13:12.353Z,32.55
2022-08-14T13:15:40.175Z,32.85
2022-08-14T13:18:18.330Z,33.38
2022-08-14T13:20:49.405Z,33.49
2022-08-14T13:23:19.511Z,33.53
2022-08-14T13:25:58.692Z,32.94
2022-08-14T13:28:32.629Z,32.70
2022-08-14T13:31:04.152Z,32.60
2022-08-14T13:33:40.816Z,32.65
2022-08-14T13:36:09.834Z,32.81
2022-08-14T13:38:43.112Z,32.51
2022-08-14T13:41:10.871Z,31.94
2022-08-14T13:43:59.503Z,31.59
2022-08-14T13:46:27.969Z,31.70
2022-08-14T13:48:57.342Z,31.74
2022-08-14T13:51:35.115Z,31.68
2022-08-14T13:54:10.730Z,32.05
2022-08-14T13:56:40.773Z,32.66
2022-08-14T13:59:09.498Z,33.14
2022-08-14T14:01:43.675Z,33.87
2022-08-14T14:04:18.155Z,34.78
2022-08-14T14:06:49.530Z,35.41
2022-08-14T14:09:26.190Z,35.76
2022-08-14T14:12:00.627Z,35.64
2022-08-14T14:14:44.851Z,34.36
2022-08-14T14:17:14.535Z,33.98
2022-08-14T14:19:46.275Z,34.12
2022-08-14T14:22:36.098Z,33.87
2022-08-14T14:25:04.619Z,33.86
2022-08-14T14:27:41.507Z,34.12
2022-08-14T14:30:29.401Z,34.21
2022-08-14T14:33:05.181Z,33.87
2022-08-14T14:35:39.778Z,33.80
2022-08-14T14:38:08.485Z,34.15
2022-08-14T14:40:53.368Z,34.45
2022-08-14T14:43:27.658Z,34.42
2022-08-14T14:45:55.086Z,34.44
2022-08-14T14:48:23.085Z,34.22
2022-08-14T14:50:58.927Z,34.18
2022-08-14T14:53:27.038Z,34.28
2022-08-14T14:56:49.867Z,34.41
2022-08-14T14:58:43.211Z,34.97
2022-08-14T15:01:17.996Z,35.09
2022-08-14T15:03:45.936Z,35.35
2022-08-14T15:06:12.774Z,35.31
2022-08-14T15:08:56.333Z,34.28
2022-08-14T15:11:30.469Z,34.46
2022-08-14T15:14:00.296Z,34.92
2022-08-14T15:16:27.999Z,35.06
2022-08-14T15:18:54.807Z,35.25
2022-08-14T15:21:21.359Z,35.80
2022-08-14T15:23:50.234Z,36.02
2022-08-14T15:26:23.982Z,35.40
2022-08-14T15:29:05.861Z,34.98
2022-08-14T15:31:36.228Z,34.64
2022-08-14T15:34:43.644Z,34.36
2022-08-14T15:36:58.825Z,34.55
2022-08-14T15:39:25.998Z,34.92
2022-08-14T15:42:00.409Z,35.25
2022-08-14T15:44:34.001Z,34.61
2022-08-14T15:47:06.242Z,33.91
2022-08-14T15:49:34.844Z,33.40
2022-08-14T15:52:03.827Z,32.92
2022-08-14T15:54:31.554Z,33.48
2022-08-14T15:57:00.944Z,34.51
2022-08-14T15:59:48.176Z,34.79
2022-08-14T16:02:16.651Z,34.12
2022-08-14T16:04:45.456Z,33.75
2022-08-14T16:07:17.476Z,33.66
2022-08-14T16:09:46.893Z,33.13
2022-08-14T16:12:13.362Z,32.55
2022-08-14T16:14:45.469Z,31.73
2022-08-14T16:17:13.532Z,31.25
2022-08-14T16:19:45.390Z,31.13
2022-08-14T16:23:10.618Z,30.96
2022-08-14T16:25:03.761Z,30.78
2022-08-14T16:27:38.778Z,30.59
2022-08-14T16:30:25.157Z,30.39
2022-08-14T16:33:04.290Z,30.01
2022-08-14T16:35:42.765Z,29.70
2022-08-14T16:38:46.062Z,29.25
2022-08-14T16:41:17.816Z,29.05
2022-08-14T16:43:45.439Z,28.95
2022-08-14T16:46:22.539Z,28.78
2022-08-14T16:48:56.975Z,28.65
2022-08-14T16:51:28.437Z,28.52
2022-08-14T16:53:58.485Z,28.43
2022-08-14T16:56:30.680Z,28.32
2022-08-14T16:59:09.737Z,28.23
2022-08-14T17:01:44.493Z,28.12
2022-08-14T17:04:25.069Z,28.13
2022-08-14T17:06:57.909Z,28.19
2022-08-14T17:09:44.452Z,28.23
2022-08-14T17:12:34.080Z,28.24
2022-08-14T17:15:09.939Z,28.19
2022-08-14T17:17:58.373Z,28.13
2022-08-14T17:20:53.161Z,28.08
2022-08-14T17:23:13.724Z,28.04
2022-08-14T17:25:51.056Z,28.01
2022-08-14T17:28:51.771Z,27.97
2022-08-14T17:31:10.260Z,27.90
2022-08-14T17:33:40.976Z,27.83
2022-08-14T17:36:20.902Z,27.71
2022-08-14T17:39:14.466Z,27.59
2022-08-14T17:44:45.776Z,27.40
2022-08-14T17:47:18.024Z,27.33
2022-08-14T17:49:51.712Z,27.26
2022-08-14T17:52:34.713Z,27.16
2022-08-14T17:55:06.663Z,27.04
2022-08-14T17:57:35.226Z,26.91
2022-08-14T18:00:12.394Z,26.73
2022-08-14T18:02:40.777Z,26.54
2022-08-14T18:05:23.341Z,26.37
2022-08-14T18:08:31.357Z,26.20
2022-08-14T18:10:55.845Z,25.92
2022-08-14T18:13:50.103Z,25.71
2022-08-14T18:16:20.096Z,25.45
2022-08-14T18:18:49.406Z,25.17
2022-08-14T18:21:39.689Z,24.62
2022-08-14T18:24:04.450Z,23.83
2022-08-14T18:27:01.738Z,23.06
2022-08-14T18:29:31.740Z,22.41
2022-08-14T18:31:59.207Z,21.99
2022-08-14T18:34:38.003Z,21.62
2022-08-14T18:37:21.762Z,21.45
2022-08-14T18:40:03.193Z,21.49
2022-08-14T18:42:32.191Z,21.57
2022-08-14T18:45:12.769Z,21.54
2022-08-14T18:48:14.249Z,21.57
2022-08-14T18:50:47.279Z,21.60
2022-08-14T18:53:17.566Z,21.61
2022-08-14T18:55:54.703Z,21.54
2022-08-14T18:58:56.865Z,21.49
2022-08-14T19:01:30.382Z,21.52
2022-08-14T19:04:01.007Z,21.58
2022-08-14T19:06:50.125Z,21.59
2022-08-14T19:10:01.057Z,21.62
2022-08-14T19:13:00.597Z,21.65
2022-08-14T19:15:43.517Z,21.69
2022-08-14T19:18:28.152Z,21.70
2022-08-14T19:21:00.109Z,21.69
2022-08-14T19:23:43.890Z,21.65
2022-08-14T19:26:35.462Z,21.65
2022-08-14T19:29:37.600Z,21.64
2022-08-14T19:32:40.215Z,21.62
2022-08-14T19:35:22.935Z,21.59
2022-08-14T19:37:55.371Z,21.53
2022-08-14T19:40:40.313Z,21.48
2022-08-14T19:43:10.671Z,21.47
2022-08-14T19:45:39.275Z,21.45
2022-08-14T19:48:15.861Z,21.44
2022-08-14T19:50:46.788Z,21.42
2022-08-14T19:53:17.793Z,21.40
2022-08-14T19:56:04.931Z,21.37
2022-08-14T19:58:57.387Z,21.34
2022-08-14T20:01:36.541Z,21.31
2022-08-14T20:04:22.930Z,21.29
2022-08-14T20:06:57.809Z,21.25
2022-08-14T20:11:03.431Z,21.23
2022-08-14T20:12:35.530Z,21.17
2022-08-14T20:15:15.433Z,21.12
2022-08-14T20:17:52.344Z,21.11
2022-08-14T20:20:32.449Z,21.09
2022-08-14T20:23:11.445Z,21.05
2022-08-14T20:25:56.688Z,21.02
2022-08-14T20:28:32.990Z,20.98
2022-08-14T20:31:22.152Z,20.95
2022-08-14T20:34:24.967Z,20.90
2022-08-14T20:37:22.878Z,20.85
2022-08-14T20:39:54.407Z,20.82
2022-08-14T20:42:43.765Z,20.77
2022-08-14T20:45:24.800Z,20.72
2022-08-14T20:48:02.491Z,20.68
2022-08-14T20:50:44.844Z,20.65
2022-08-14T20:53:27.193Z,20.61
2022-08-14T20:56:00.558Z,20.58
2022-08-14T20:58:41.887Z,20.55
2022-08-14T21:01:32.679Z,20.52
2022-08-14T21:04:11.875Z,20.50
2022-08-14T21:07:23.035Z,20.50
2022-08-14T21:10:05.033Z,20.50
2022-08-14T21:12:34.208Z,20.49
2022-08-14T21:15:10.032Z,20.48
2022-08-14T21:17:41.527Z,20.48
2022-08-14T21:20:25.870Z,20.45
2022-08-14T21:23:00.615Z,20.43
2022-08-14T21:25:32.229Z,20.42
2022-08-14T21:28:05.017Z,20.40
2022-08-14T21:30:51.699Z,20.40
2022-08-14T21:33:29.236Z,20.37
2022-08-14T21:36:07.742Z,20.36
2022-08-14T21:38:38.209Z,20.37
2022-08-14T21:41:42.711Z,20.37
2022-08-14T21:44:17.858Z,20.38
2022-08-14T21:47:10.172Z,20.38
2022-08-14T21:49:43.138Z,20.37
2022-08-14T21:52:51.417Z,20.34
2022-08-14T21:55:12.457Z,20.32
2022-08-14T21:58:45.745Z,20.28
2022-08-14T22:00:42.248Z,20.25
2022-08-14T22:03:17.429Z,20.22
2022-08-14T22:05:50.020Z,20.18
2022-08-14T22:08:27.042Z,20.15
2022-08-14T22:10:56.693Z,20.15
2022-08-14T22:13:32.370Z,20.15
2022-08-14T22:16:01.939Z,20.11
2022-08-14T22:18:31.079Z,20.11
2022-08-14T22:21:00.759Z,20.13
2022-08-14T22:23:35.778Z,20.11
2022-08-14T22:26:06.794Z,20.10
2022-08-14T22:28:34.767Z,20.09
2022-08-14T22:31:10.325Z,20.06
2022-08-14T22:33:40.614Z,20.04
2022-08-14T22:36:41.944Z,20.02
2022-08-14T22:40:17.611Z,19.99
2022-08-14T22:42:23.026Z,19.97
2022-08-14T22:44:56.514Z,19.96
2022-08-14T22:47:26.211Z,19.93
2022-08-14T22:50:29.201Z,19.92
2022-08-14T22:52:59.540Z,19.92
2022-08-14T22:55:28.757Z,19.93
2022-08-14T22:57:56.979Z,19.94
2022-08-14T23:00:30.227Z,19.95
2022-08-14T23:03:01.956Z,19.95
2022-08-14T23:05:39.628Z,19.96
2022-08-14T23:08:59.796Z,19.97
2022-08-14T23:11:10.686Z,20.00
2022-08-14T23:13:43.626Z,20.01
2022-08-14T23:16:19.995Z,19.99
2022-08-14T23:18:54.218Z,19.98
2022-08-14T23:21:25.026Z,20.00
2022-08-14T23:23:56.039Z,20.01
2022-08-14T23:26:48.124Z,20.00
2022-08-14T23:29:18.836Z,20.01
2022-08-14T23:31:48.851Z,20.02
2022-08-14T23:34:21.367Z,20.01
2022-08-14T23:36:55.661Z,20.01
2022-08-14T23:39:31.739Z,20.00
2022-08-14T23:42:07.566Z,20.00
2022-08-14T23:44:38.862Z,19.99
2022-08-14T23:47:12.031Z,19.98
2022-08-14T23:50:04.139Z,19.98
2022-08-14T23:52:51.605Z,19.96
2022-08-14T23:55:33.622Z,19.94
2022-08-14T23:58:01.580Z,19.93
